createdAt,value
2023-04-24T00:02:27.712Z,97042.94
2023-04-24T00:04:55.682Z,97038.84
2023-04-24T00:07:23.496Z,97040.09
2023-04-24T00:09:51.513Z,97031.94
2023-04-24T00:12:19.281Z,97037.69
2023-04-24T00:14:46.970Z,97030.16
2023-04-24T00:17:14.761Z,97016.22
2023-04-24T00:19:42.616Z,97029.16
2023-04-24T00:22:11.936Z,97021.72
2023-04-24T00:24:39.785Z,97026.66
2023-04-24T00:27:07.560Z,97023.47
2023-04-24T00:29:35.985Z,97011.47
2023-04-24T00:32:03.801Z,97014.94
2023-04-24T00:34:33.461Z,97006.41
2023-04-24T00:37:01.224Z,97010.63
2023-04-24T00:39:28.955Z,97021.59
2023-04-24T00:41:57.788Z,97005.44
2023-04-24T00:44:25.500Z,97001.53
2023-04-24T00:46:55.672Z,97012.63
2023-04-24T00:49:23.412Z,97015.03
2023-04-24T00:51:52.220Z,97003.44
2023-04-24T00:54:19.977Z,97003.59
2023-04-24T00:56:48.011Z,97004.88
2023-04-24T00:59:17.336Z,97004.59
2023-04-24T01:01:45.878Z,96999.00
2023-04-24T01:04:13.823Z,97000.28
2023-04-24T01:06:41.689Z,96990.41
2023-04-24T01:09:09.966Z,96988.56
2023-04-24T01:11:38.038Z,96983.34
2023-04-24T01:14:06.407Z,96980.13
2023-04-24T01:16:34.458Z,96984.38
2023-04-24T01:19:02.779Z,96985.31
2023-04-24T01:21:31.132Z,96994.47
2023-04-24T01:23:58.854Z,96995.56
2023-04-24T01:26:26.646Z,97003.81
2023-04-24T01:28:54.410Z,96985.88
2023-04-24T01:31:22.175Z,97001.25
2023-04-24T01:33:50.637Z,97000.03
2023-04-24T01:36:18.508Z,96990.16
2023-04-24T01:38:46.180Z,96991.69
2023-04-24T01:41:13.927Z,96982.06
2023-04-24T01:43:41.635Z,96982.47
2023-04-24T01:46:09.446Z,96982.59
2023-04-24T01:48:37.531Z,96988.66
2023-04-24T01:51:05.396Z,96986.31
2023-04-24T01:53:33.153Z,96979.72
2023-04-24T01:56:00.914Z,96983.28
2023-04-24T01:58:28.643Z,96994.53
2023-04-24T02:00:58.132Z,96990.47
2023-04-24T02:03:27.260Z,96993.03
2023-04-24T02:05:56.191Z,97004.72
2023-04-24T02:08:26.088Z,96994.94
2023-04-24T02:10:53.827Z,96985.75
2023-04-24T02:13:21.487Z,96993.22
2023-04-24T02:15:49.209Z,96990.59
2023-04-24T02:18:17.907Z,96985.03
2023-04-24T02:20:46.131Z,96988.69
2023-04-24T02:23:14.648Z,96988.44
2023-04-24T02:25:42.447Z,96986.88
2023-04-24T02:28:10.162Z,96984.09
2023-04-24T02:30:37.837Z,96982.00
2023-04-24T02:33:05.590Z,96984.31
2023-04-24T02:35:33.323Z,96987.59
2023-04-24T02:38:01.185Z,96980.88
2023-04-24T02:40:28.848Z,96979.69
2023-04-24T02:42:56.595Z,96977.06
2023-04-24T02:45:25.655Z,96981.38
2023-04-24T02:47:53.494Z,96989.09
2023-04-24T02:50:21.303Z,96994.81
2023-04-24T02:52:49.064Z,96983.28
2023-04-24T02:55:16.838Z,96983.09
2023-04-24T02:57:44.689Z,96980.06
2023-04-24T03:00:13.012Z,96979.47
2023-04-24T03:02:41.002Z,96981.81
2023-04-24T03:05:09.961Z,96983.19
2023-04-24T03:07:37.891Z,96974.56
2023-04-24T03:10:07.096Z,96986.59
2023-04-24T03:12:34.833Z,96990.59
2023-04-24T03:15:02.512Z,96983.28
2023-04-24T03:17:30.267Z,96985.41
2023-04-24T03:19:58.009Z,96986.22
2023-04-24T03:22:25.820Z,97003.63
2023-04-24T03:24:55.799Z,96986.09
2023-04-24T03:27:23.611Z,96996.75
2023-04-24T03:30:08.712Z,96994.28
2023-04-24T03:32:48.340Z,97005.34
2023-04-24T03:35:22.965Z,97009.19
2023-04-24T03:37:51.508Z,97010.16
2023-04-24T03:40:42.303Z,97015.16
2023-04-24T03:43:30.031Z,97017.78
2023-04-24T03:46:00.556Z,97023.06
2023-04-24T03:48:29.343Z,97018.69
2023-04-24T03:50:57.403Z,97013.03
2023-04-24T03:53:25.365Z,97023.31
2023-04-24T03:55:54.017Z,97009.03
2023-04-24T03:58:21.887Z,97037.56
2023-04-24T04:00:50.876Z,97023.56
2023-04-24T04:03:50.817Z,97025.41
2023-04-24T04:06:23.008Z,97038.53
2023-04-24T04:08:52.614Z,97024.28
2023-04-24T04:11:20.896Z,97032.44
2023-04-24T04:13:49.112Z,97030.97
2023-04-24T04:16:19.846Z,97037.88
2023-04-24T04:18:50.110Z,97043.59
2023-04-24T04:21:18.236Z,97042.16
2023-04-24T04:23:46.659Z,97041.28
2023-04-24T04:26:26.530Z,97035.66
2023-04-24T04:29:09.142Z,97031.13
2023-04-24T04:31:41.253Z,97036.59
2023-04-24T04:34:13.730Z,97049.78
2023-04-24T04:36:42.820Z,97050.59
2023-04-24T04:39:31.622Z,97043.19
2023-04-24T04:42:05.596Z,97038.03
2023-04-24T04:44:40.840Z,97043.34
2023-04-24T04:49:39.928Z,97046.19
2023-04-24T04:52:12.820Z,97054.22
2023-04-24T04:54:40.883Z,97039.84
2023-04-24T04:57:09.054Z,97051.63
2023-04-24T04:59:38.224Z,97049.59
2023-04-24T05:02:11.153Z,97047.56
2023-04-24T05:04:39.446Z,97054.13
2023-04-24T05:07:07.433Z,97056.25
2023-04-24T05:09:39.228Z,97054.28
2023-04-24T05:12:08.544Z,97057.25
2023-04-24T05:14:43.143Z,97052.56
2023-04-24T05:17:13.469Z,97058.41
2023-04-24T05:19:41.970Z,97046.94
2023-04-24T05:22:10.792Z,97049.63
2023-04-24T05:24:47.223Z,97054.97
2023-04-24T05:27:25.525Z,97046.84
2023-04-24T05:29:53.250Z,97047.56
2023-04-24T05:32:20.991Z,97049.91
2023-04-24T05:34:48.831Z,97044.03
2023-04-24T05:37:17.913Z,97046.56
2023-04-24T05:39:45.808Z,97039.72
2023-04-24T05:42:13.504Z,97050.13
2023-04-24T05:44:41.270Z,97044.31
2023-04-24T05:47:08.994Z,97049.25
2023-04-24T05:49:36.771Z,97045.94
2023-04-24T05:52:06.573Z,97043.50
2023-04-24T05:54:34.724Z,97054.00
2023-04-24T05:57:05.513Z,97040.34
2023-04-24T05:59:45.745Z,97034.59
2023-04-24T06:02:14.252Z,97032.06
2023-04-24T06:04:42.814Z,97046.06
2023-04-24T06:07:12.025Z,97041.75
2023-04-24T06:09:41.100Z,97038.59
2023-04-24T06:12:09.914Z,97033.13
2023-04-24T06:14:52.280Z,97031.53
2023-04-24T06:17:24.705Z,97036.75
2023-04-24T06:19:52.636Z,97031.22
2023-04-24T06:22:24.035Z,97032.34
2023-04-24T06:24:51.796Z,97025.84
2023-04-24T06:27:19.465Z,97033.53
2023-04-24T06:29:47.231Z,97028.72
2023-04-24T06:32:15.039Z,97020.53
2023-04-24T06:34:43.414Z,97017.78
2023-04-24T06:37:11.168Z,97009.06
2023-04-24T06:39:38.915Z,97015.69
2023-04-24T06:42:06.639Z,97014.34
2023-04-24T06:44:41.633Z,97016.22
2023-04-24T06:47:10.653Z,97021.97
2023-04-24T06:49:38.691Z,97029.84
2023-04-24T06:52:06.527Z,97026.56
2023-04-24T06:54:34.286Z,97021.13
2023-04-24T06:57:03.417Z,97032.59
2023-04-24T06:59:31.496Z,97021.72
2023-04-24T07:01:59.277Z,97026.44
2023-04-24T07:04:27.575Z,97030.06
2023-04-24T07:06:56.974Z,97030.09
2023-04-24T07:09:26.481Z,97020.19
2023-04-24T07:11:54.489Z,97025.69
2023-04-24T07:14:22.199Z,97019.19
2023-04-24T07:16:49.926Z,97025.94
2023-04-24T07:19:17.657Z,97026.47
2023-04-24T07:21:45.673Z,97025.78
2023-04-24T07:24:13.999Z,97015.75
2023-04-24T07:26:41.663Z,97012.41
2023-04-24T07:29:09.371Z,97028.31
2023-04-24T07:31:37.121Z,97019.47
2023-04-24T07:34:04.847Z,97015.63
2023-04-24T07:36:33.333Z,97015.66
2023-04-24T07:39:01.010Z,97021.31
2023-04-24T07:41:29.133Z,97014.63
2023-04-24T07:43:56.875Z,97017.22
2023-04-24T07:46:24.762Z,97020.31
2023-04-24T07:49:05.413Z,97013.06
2023-04-24T07:51:40.218Z,97013.03
2023-04-24T07:54:07.966Z,97009.69
2023-04-24T07:56:39.789Z,97012.00
2023-04-24T07:59:07.728Z,97010.63
2023-04-24T08:01:35.506Z,97016.31
2023-04-24T08:04:03.465Z,97009.63
2023-04-24T08:06:32.938Z,97017.38
2023-04-24T08:09:01.036Z,97010.72
2023-04-24T08:11:28.789Z,97001.84
2023-04-24T08:13:56.547Z,97012.41
2023-04-24T08:16:27.478Z,97009.38
2023-04-24T08:18:55.267Z,97014.56
2023-04-24T08:21:23.072Z,97008.22
2023-04-24T08:23:51.085Z,97002.28
2023-04-24T08:26:18.783Z,97007.53
2023-04-24T08:28:46.505Z,96999.41
2023-04-24T08:31:14.321Z,97000.19
2023-04-24T08:33:42.083Z,96995.19
2023-04-24T08:36:09.894Z,96994.47
2023-04-24T08:38:37.601Z,96979.75
2023-04-24T08:41:06.063Z,96994.78
2023-04-24T08:43:34.237Z,96981.53
2023-04-24T08:46:03.985Z,96979.75
2023-04-24T08:48:33.362Z,96985.63
2023-04-24T08:51:02.284Z,96977.16
2023-04-24T08:53:30.105Z,96976.94
2023-04-24T08:55:57.948Z,96975.41
2023-04-24T08:58:27.088Z,96968.28
2023-04-24T09:00:58.140Z,96967.38
2023-04-24T09:03:26.234Z,96958.63
2023-04-24T09:05:54.017Z,96949.78
2023-04-24T09:08:21.907Z,96956.84
2023-04-24T09:10:51.187Z,96944.72
2023-04-24T09:13:20.589Z,96942.56
2023-04-24T09:15:48.362Z,96928.22
2023-04-24T09:18:16.132Z,96916.13
2023-04-24T09:21:10.153Z,96914.91
2023-04-24T09:23:37.934Z,96916.84
2023-04-24T09:26:08.495Z,96920.59
2023-04-24T09:28:37.815Z,96910.50
2023-04-24T09:31:15.072Z,96901.28
2023-04-24T09:34:08.703Z,96892.84
2023-04-24T09:36:40.054Z,96886.91
2023-04-24T09:39:10.733Z,96881.84
2023-04-24T09:41:44.957Z,96875.97
2023-04-24T09:44:22.918Z,96869.47
2023-04-24T09:46:54.728Z,96857.84
2023-04-24T09:49:29.459Z,96860.75
2023-04-24T09:52:07.315Z,96861.88
2023-04-24T09:54:35.158Z,96848.31
2023-04-24T09:57:03.015Z,96853.88
2023-04-24T09:59:30.915Z,96844.72
2023-04-24T10:02:00.118Z,96852.72
2023-04-24T10:04:29.136Z,96846.97
2023-04-24T10:06:57.476Z,96856.69
2023-04-24T10:09:26.326Z,96850.34
2023-04-24T10:11:55.728Z,96831.69
2023-04-24T10:14:24.367Z,96839.69
2023-04-24T10:16:55.925Z,96833.97
2023-04-24T10:19:23.945Z,96833.38
2023-04-24T10:21:51.640Z,96834.81
2023-04-24T10:24:21.597Z,96824.06
2023-04-24T10:26:49.631Z,96832.16
2023-04-24T10:29:19.090Z,96832.47
2023-04-24T10:31:47.868Z,96830.94
2023-04-24T10:34:16.880Z,96827.09
2023-04-24T10:36:47.410Z,96836.97
2023-04-24T10:39:16.079Z,96835.13
2023-04-24T10:41:43.901Z,96828.91
2023-04-24T10:44:13.752Z,96834.03
2023-04-24T10:46:44.889Z,96828.19
2023-04-24T10:49:12.808Z,96831.72
2023-04-24T10:51:54.336Z,96819.88
2023-04-24T10:54:41.523Z,96824.19
2023-04-24T10:57:21.861Z,96817.69
2023-04-24T10:59:51.778Z,96815.78
2023-04-24T11:02:19.690Z,96805.97
2023-04-24T11:04:47.687Z,96797.88
2023-04-24T11:07:15.811Z,96800.00
2023-04-24T11:09:44.247Z,96790.63
2023-04-24T11:12:12.614Z,96791.50
2023-04-24T11:14:59.443Z,96784.41
2023-04-24T11:17:41.800Z,96783.94
2023-04-24T11:20:26.700Z,96772.22
2023-04-24T11:22:56.183Z,96766.16
2023-04-24T11:25:24.205Z,96761.69
2023-04-24T11:27:52.268Z,96760.88
2023-04-24T11:30:21.036Z,96755.31
2023-04-24T11:32:50.182Z,96750.91
2023-04-24T11:35:25.903Z,96745.00
2023-04-24T11:38:18.726Z,96743.53
2023-04-24T11:40:42.097Z,96745.31
2023-04-24T11:43:10.394Z,96738.88
2023-04-24T11:45:38.219Z,96725.25
2023-04-24T11:48:06.102Z,96722.03
2023-04-24T11:50:33.895Z,96717.09
2023-04-24T11:53:02.185Z,96715.09
2023-04-24T11:55:30.232Z,96711.22
2023-04-24T11:57:59.143Z,96702.13
2023-04-24T12:00:31.149Z,96707.19
2023-04-24T12:03:09.666Z,96700.28
2023-04-24T12:05:38.079Z,96695.16
2023-04-24T12:08:06.223Z,96686.78
2023-04-24T12:10:34.140Z,96682.56
2023-04-24T12:13:02.060Z,96677.94
2023-04-24T12:15:29.796Z,96680.56
2023-04-24T12:17:57.676Z,96676.13
2023-04-24T12:20:27.560Z,96676.63
2023-04-24T12:22:56.586Z,96672.75
2023-04-24T12:25:25.970Z,96665.38
2023-04-24T12:28:06.272Z,96664.72
2023-04-24T12:30:45.343Z,96661.00
2023-04-24T12:33:13.286Z,96660.81
2023-04-24T12:35:41.967Z,96657.78
2023-04-24T12:38:11.460Z,96653.22
2023-04-24T12:40:39.222Z,96651.72
2023-04-24T12:43:19.445Z,96647.88
2023-04-24T12:45:48.722Z,96645.81
2023-04-24T12:48:16.608Z,96642.56
2023-04-24T12:50:46.445Z,96646.28
2023-04-24T12:53:15.003Z,96642.00
2023-04-24T12:55:42.826Z,96649.88
2023-04-24T12:58:10.565Z,96651.69
2023-04-24T13:00:38.511Z,96648.75
2023-04-24T13:03:06.381Z,96672.75
2023-04-24T13:05:34.434Z,96698.25
2023-04-24T13:08:02.137Z,96706.53
2023-04-24T13:10:29.911Z,96701.66
2023-04-24T13:12:57.994Z,96705.09
2023-04-24T13:15:25.785Z,96702.78
2023-04-24T13:17:53.528Z,96696.75
2023-04-24T13:20:21.446Z,96696.75
2023-04-24T13:22:49.172Z,96712.16
2023-04-24T13:25:18.215Z,96723.28
2023-04-24T13:27:46.358Z,96738.72
2023-04-24T13:30:14.349Z,96732.25
2023-04-24T13:32:42.120Z,96728.56
2023-04-24T13:35:09.912Z,96739.50
2023-04-24T13:37:37.630Z,96748.38
2023-04-24T13:40:07.168Z,96735.44
2023-04-24T13:42:35.340Z,96739.66
2023-04-24T13:45:13.899Z,96750.34
2023-04-24T13:47:52.150Z,96753.47
2023-04-24T13:50:21.330Z,96748.59
2023-04-24T13:52:49.019Z,96751.47
2023-04-24T13:55:16.751Z,96744.34
2023-04-24T13:57:44.464Z,96753.09
2023-04-24T14:00:12.638Z,96744.94
2023-04-24T14:02:40.600Z,96728.22
2023-04-24T14:05:08.861Z,96734.78
2023-04-24T14:07:36.581Z,96709.03
2023-04-24T14:10:04.680Z,96719.34
2023-04-24T14:12:32.421Z,96711.06
2023-04-24T14:15:00.170Z,96722.09
2023-04-24T14:17:27.865Z,96711.69
2023-04-24T14:19:57.404Z,96714.91
2023-04-24T14:22:25.093Z,96703.72
2023-04-24T14:24:52.844Z,96700.53
2023-04-24T14:27:20.597Z,96691.81
2023-04-24T14:29:48.358Z,96686.47
2023-04-24T14:32:16.217Z,96679.16
2023-04-24T14:34:43.978Z,96673.13
2023-04-24T14:37:11.622Z,96671.09
2023-04-24T14:39:39.370Z,96673.72
2023-04-24T14:42:07.110Z,96676.50
2023-04-24T14:44:34.967Z,96667.09
2023-04-24T14:47:02.727Z,96666.88
2023-04-24T14:49:30.819Z,96663.81
2023-04-24T14:51:58.455Z,96656.63
2023-04-24T14:54:26.362Z,96660.38
2023-04-24T14:56:55.137Z,96655.44
2023-04-24T14:59:22.982Z,96652.47
2023-04-24T15:01:56.739Z,96641.09
2023-04-24T15:04:30.162Z,96632.66
2023-04-24T15:06:58.107Z,96622.00
2023-04-24T15:09:26.608Z,96621.41
2023-04-24T15:11:54.323Z,96609.94
2023-04-24T15:14:22.091Z,96614.06
2023-04-24T15:16:50.018Z,96608.25
2023-04-24T15:19:17.786Z,96613.16
2023-04-24T15:21:45.927Z,96610.53
2023-04-24T15:24:13.634Z,96616.13
2023-04-24T15:26:41.339Z,96611.47
2023-04-24T15:29:09.208Z,96611.22
2023-04-24T15:31:40.666Z,96599.81
2023-04-24T15:34:08.560Z,96607.41
2023-04-24T15:36:36.255Z,96604.34
2023-04-24T15:39:05.657Z,96607.38
2023-04-24T15:41:34.834Z,96601.22
2023-04-24T15:44:02.506Z,96595.63
2023-04-24T15:46:30.455Z,96593.72
2023-04-24T15:48:58.362Z,96591.28
2023-04-24T15:51:26.472Z,96594.94
2023-04-24T15:53:54.228Z,96594.75
2023-04-24T15:56:22.417Z,96592.19
2023-04-24T15:58:50.364Z,96602.16
2023-04-24T16:01:18.346Z,96606.63
2023-04-24T16:03:46.766Z,96617.72
2023-04-24T16:06:15.032Z,96626.97
2023-04-24T16:08:42.813Z,96631.09
2023-04-24T16:11:10.803Z,96638.53
2023-04-24T16:13:38.542Z,96645.75
2023-04-24T16:16:06.660Z,96650.00
2023-04-24T16:18:34.524Z,96655.88
2023-04-24T16:21:02.356Z,96671.03
2023-04-24T16:23:30.041Z,96667.41
2023-04-24T16:25:58.005Z,96665.09
2023-04-24T16:28:27.833Z,96674.53
2023-04-24T16:30:55.921Z,96675.06
2023-04-24T16:33:26.225Z,96681.03
2023-04-24T16:35:53.936Z,96684.47
2023-04-24T16:38:21.638Z,96684.88
2023-04-24T16:40:49.370Z,96690.16
2023-04-24T16:43:17.101Z,96682.88
2023-04-24T16:45:44.829Z,96695.38
2023-04-24T16:48:12.526Z,96705.81
2023-04-24T16:50:40.707Z,96724.47
2023-04-24T16:53:08.430Z,96726.06
2023-04-24T16:55:36.536Z,96730.91
2023-04-24T16:58:04.237Z,96741.09
2023-04-24T17:00:32.167Z,96739.28
2023-04-24T17:03:00.069Z,96718.72
2023-04-24T17:05:27.973Z,96733.94
2023-04-24T17:07:55.841Z,96733.19
2023-04-24T17:10:23.984Z,96730.69
2023-04-24T17:12:51.964Z,96731.94
2023-04-24T17:15:19.902Z,96727.44
2023-04-24T17:17:47.631Z,96740.50
2023-04-24T17:20:22.689Z,96742.13
2023-04-24T17:22:52.064Z,96749.63
2023-04-24T17:25:20.244Z,96751.00
2023-04-24T17:27:48.197Z,96763.16
2023-04-24T17:30:17.977Z,96767.56
2023-04-24T17:32:46.109Z,96781.06
2023-04-24T17:35:14.181Z,96796.97
2023-04-24T17:37:42.161Z,96795.41
2023-04-24T17:40:10.373Z,96798.78
2023-04-24T17:42:41.580Z,96794.84
2023-04-24T17:45:10.062Z,96798.44
2023-04-24T17:47:38.204Z,96808.03
2023-04-24T17:50:06.391Z,96812.78
2023-04-24T17:52:34.994Z,96815.41
2023-04-24T17:55:02.839Z,96806.28
2023-04-24T17:57:30.832Z,96806.78
2023-04-24T17:59:58.832Z,96801.34
2023-04-24T18:02:26.948Z,96809.63
2023-04-24T18:04:55.410Z,96812.75
2023-04-24T18:07:23.461Z,96806.28
2023-04-24T18:09:51.240Z,96815.91
2023-04-24T18:12:18.899Z,96825.81
2023-04-24T18:14:46.664Z,96822.16
2023-04-24T18:17:14.357Z,96814.91
2023-04-24T18:19:42.151Z,96810.44
2023-04-24T18:22:09.841Z,96803.97
2023-04-24T18:24:37.554Z,96806.97
2023-04-24T18:27:05.287Z,96804.41
2023-04-24T18:29:33.059Z,96807.59
2023-04-24T18:32:00.784Z,96803.78
2023-04-24T18:34:28.576Z,96805.88
2023-04-24T18:36:56.429Z,96797.59
2023-04-24T18:39:24.177Z,96792.66
2023-04-24T18:41:51.869Z,96781.59
2023-04-24T18:44:20.176Z,96770.94
2023-04-24T18:46:47.886Z,96761.13
2023-04-24T18:49:15.739Z,96753.88
2023-04-24T18:51:53.107Z,96763.72
2023-04-24T18:54:26.836Z,96770.34
2023-04-24T18:56:54.689Z,96775.25
2023-04-24T18:59:22.568Z,96773.81
2023-04-24T19:01:50.320Z,96782.25
2023-04-24T19:04:20.710Z,96777.09
2023-04-24T19:06:49.021Z,96787.19
2023-04-24T19:09:16.843Z,96778.28
2023-04-24T19:11:44.935Z,96774.06
2023-04-24T19:14:13.585Z,96773.16
2023-04-24T19:16:41.718Z,96778.16
2023-04-24T19:19:09.521Z,96776.47
2023-04-24T19:21:37.268Z,96779.63
2023-04-24T19:24:05.209Z,96780.47
2023-04-24T19:26:33.026Z,96773.41
2023-04-24T19:29:00.767Z,96784.88
2023-04-24T19:31:28.555Z,96775.91
2023-04-24T19:33:56.301Z,96789.50
2023-04-24T19:36:24.088Z,96780.88
2023-04-24T19:38:51.975Z,96784.91
2023-04-24T19:41:19.881Z,96789.09
2023-04-24T19:43:49.712Z,96790.69
2023-04-24T19:46:17.638Z,96775.44
2023-04-24T19:48:45.357Z,96777.50
2023-04-24T19:51:13.337Z,96779.31
2023-04-24T19:53:41.398Z,96777.16
2023-04-24T19:56:09.182Z,96780.34
2023-04-24T19:58:36.889Z,96775.75
2023-04-24T20:01:06.029Z,96777.72
2023-04-24T20:03:34.720Z,96775.69
2023-04-24T20:06:02.912Z,96777.81
2023-04-24T20:08:30.715Z,96777.13
2023-04-24T20:10:58.595Z,96779.13
2023-04-24T20:13:31.845Z,96778.91
2023-04-24T20:16:00.045Z,96775.53
2023-04-24T20:18:27.860Z,96786.66
2023-04-24T20:20:58.159Z,96786.44
2023-04-24T20:23:26.453Z,96782.00
2023-04-24T20:25:58.241Z,96784.63
2023-04-24T20:28:26.992Z,96793.63
2023-04-24T20:30:54.819Z,96783.59
2023-04-24T20:33:23.633Z,96787.47
2023-04-24T20:35:52.403Z,96778.91
2023-04-24T20:38:22.298Z,96780.19
2023-04-24T20:40:57.735Z,96775.78
2023-04-24T20:43:28.710Z,96763.84
2023-04-24T20:45:58.219Z,96763.88
2023-04-24T20:48:26.726Z,96755.50
2023-04-24T20:50:54.743Z,96748.25
2023-04-24T20:53:22.478Z,96742.63
2023-04-24T20:55:50.433Z,96738.59
2023-04-24T20:58:22.121Z,96726.56
2023-04-24T21:00:50.144Z,96724.06
2023-04-24T21:03:18.009Z,96714.81
2023-04-24T21:05:45.897Z,96707.09
2023-04-24T21:08:13.650Z,96701.00
2023-04-24T21:10:41.441Z,96699.00
2023-04-24T21:13:09.192Z,96691.41
2023-04-24T21:15:37.055Z,96687.72
2023-04-24T21:18:04.883Z,96675.66
2023-04-24T21:20:32.692Z,96683.16
2023-04-24T21:23:00.428Z,96673.63
2023-04-24T21:25:28.251Z,96665.47
2023-04-24T21:27:56.845Z,96658.53
2023-04-24T21:30:24.571Z,96663.53
2023-04-24T21:32:52.870Z,96653.41
2023-04-24T21:35:20.694Z,96642.97
2023-04-24T21:37:48.343Z,96651.88
2023-04-24T21:40:16.113Z,96658.13
2023-04-24T21:42:43.806Z,96653.28
2023-04-24T21:45:11.888Z,96645.94
2023-04-24T21:47:39.590Z,96650.31
2023-04-24T21:50:07.996Z,96663.88
2023-04-24T21:52:35.688Z,96669.28
2023-04-24T21:55:03.619Z,96672.44
2023-04-24T21:57:31.388Z,96664.97
2023-04-24T21:59:59.165Z,96678.53
2023-04-24T22:02:27.003Z,96679.50
2023-04-24T22:04:57.556Z,96684.41
2023-04-24T22:07:25.397Z,96686.31
2023-04-24T22:09:53.195Z,96670.97
2023-04-24T22:12:20.919Z,96667.34
2023-04-24T22:14:48.767Z,96659.44
2023-04-24T22:17:17.301Z,96652.31
2023-04-24T22:19:45.086Z,96651.63
2023-04-24T22:22:12.761Z,96657.47
2023-04-24T22:24:40.506Z,96645.06
2023-04-24T22:27:08.549Z,96637.69
2023-04-24T22:29:36.235Z,96647.25
2023-04-24T22:32:04.026Z,96642.16
2023-04-24T22:34:31.722Z,96631.16
2023-04-24T22:36:59.413Z,96628.41
2023-04-24T22:39:27.079Z,96619.47
2023-04-24T22:41:54.881Z,96611.75
2023-04-24T22:44:22.584Z,96608.34
2023-04-24T22:46:51.682Z,96603.44
2023-04-24T22:49:20.463Z,96597.41
2023-04-24T22:51:48.725Z,96598.06
2023-04-24T22:54:16.372Z,96601.06
2023-04-24T22:56:44.078Z,96603.69
2023-04-24T22:59:11.760Z,96604.38
2023-04-24T23:01:39.499Z,96593.22
2023-04-24T23:04:07.304Z,96589.16
2023-04-24T23:06:35.131Z,96594.94
2023-04-24T23:09:02.812Z,96592.69
2023-04-24T23:11:30.568Z,96594.06
2023-04-24T23:13:58.273Z,96589.41
2023-04-24T23:16:26.038Z,96584.31
2023-04-24T23:18:53.776Z,96586.16
2023-04-24T23:21:21.539Z,96577.50
2023-04-24T23:23:51.045Z,96577.50
2023-04-24T23:26:18.858Z,96580.78
2023-04-24T23:28:46.618Z,96577.63
2023-04-24T23:31:14.398Z,96581.63
2023-04-24T23:33:42.099Z,96586.91
2023-04-24T23:36:09.902Z,96589.81
2023-04-24T23:38:49.089Z,96584.75
2023-04-24T23:41:21.135Z,96585.22
2023-04-24T23:43:48.975Z,96597.53
2023-04-24T23:46:16.889Z,96593.66
2023-04-24T23:48:44.604Z,96592.38
2023-04-24T23:51:12.321Z,96597.03
2023-04-24T23:53:40.040Z,96593.38
2023-04-24T23:56:08.085Z,96609.44
2023-04-24T23:58:36.847Z,96594.94
